createdAt,value
2019-03-10T00:00:19.772Z,47.60
2019-03-10T00:02:45.870Z,47.69
2019-03-10T00:05:11.934Z,47.63
2019-03-10T00:07:38.022Z,47.67
2019-03-10T00:10:04.107Z,47.88
2019-03-10T00:12:30.156Z,47.80
2019-03-10T00:14:56.192Z,48.05
2019-03-10T00:17:22.252Z,47.87
2019-03-10T00:19:48.250Z,47.91
2019-03-10T00:22:14.256Z,48.08
2019-03-10T00:24:40.288Z,48.13
2019-03-10T00:27:06.449Z,48.01
2019-03-10T00:29:32.582Z,48.31
2019-03-10T00:31:58.644Z,48.12
2019-03-10T00:34:24.682Z,48.26
2019-03-10T00:36:50.726Z,48.39
2019-03-10T00:39:16.793Z,48.30
2019-03-10T00:41:42.866Z,48.15
2019-03-10T00:44:08.889Z,48.25
2019-03-10T00:46:34.891Z,48.36
2019-03-10T00:49:00.978Z,48.29
2019-03-10T00:51:27.006Z,48.40
2019-03-10T00:53:53.026Z,48.45
2019-03-10T00:56:19.023Z,48.49
2019-03-10T00:58:45.067Z,48.48
2019-03-10T01:01:11.093Z,48.50
2019-03-10T01:03:37.129Z,48.57
2019-03-10T01:06:03.207Z,48.50
2019-03-10T01:08:29.246Z,48.51
2019-03-10T01:10:55.257Z,48.71
2019-03-10T01:13:21.273Z,48.41
2019-03-10T01:15:47.327Z,48.48
2019-03-10T01:18:13.357Z,48.44
2019-03-10T01:20:39.359Z,48.40
2019-03-10T01:23:05.379Z,48.42
2019-03-10T01:25:31.409Z,48.59
2019-03-10T01:27:57.429Z,48.52
2019-03-10T01:30:23.445Z,48.59
2019-03-10T01:32:49.534Z,48.68
2019-03-10T01:35:15.558Z,48.69
2019-03-10T01:37:41.576Z,48.63
2019-03-10T01:40:07.569Z,48.69
2019-03-10T01:42:33.641Z,48.79
2019-03-10T01:44:59.668Z,48.76
2019-03-10T01:47:25.653Z,48.92
2019-03-10T01:49:51.668Z,48.86
2019-03-10T01:52:17.718Z,48.88
2019-03-10T01:54:43.762Z,48.90
2019-03-10T01:57:09.840Z,49.03
2019-03-10T01:59:35.841Z,48.98
2019-03-10T02:02:01.871Z,48.99
2019-03-10T02:04:27.936Z,49.00
2019-03-10T02:06:53.955Z,48.99
2019-03-10T02:09:20.046Z,49.09
2019-03-10T02:11:46.075Z,49.11
2019-03-10T02:14:12.083Z,49.11
2019-03-10T02:16:38.115Z,49.09
2019-03-10T02:19:04.139Z,49.06
2019-03-10T02:21:30.151Z,49.05
2019-03-10T02:23:56.182Z,49.08
2019-03-10T02:26:22.199Z,49.10
2019-03-10T02:28:48.250Z,49.25
2019-03-10T02:31:14.250Z,49.18
2019-03-10T02:33:40.325Z,49.27
2019-03-10T02:36:06.345Z,49.20
2019-03-10T02:38:32.400Z,49.27
2019-03-10T02:40:58.444Z,49.28
2019-03-10T02:43:24.459Z,49.32
2019-03-10T02:45:50.509Z,49.29
2019-03-10T02:48:16.505Z,49.40
2019-03-10T02:50:42.543Z,49.40
2019-03-10T02:53:08.719Z,49.33
2019-03-10T02:55:34.755Z,49.49
2019-03-10T02:58:00.807Z,49.52
2019-03-10T03:00:26.853Z,49.55
2019-03-10T03:02:52.887Z,49.50
2019-03-10T03:05:18.953Z,49.54
2019-03-10T03:07:44.955Z,49.59
2019-03-10T03:10:10.980Z,49.54
2019-03-10T03:12:37.017Z,49.59
2019-03-10T03:15:03.132Z,49.46
2019-03-10T03:17:29.239Z,49.54
2019-03-10T03:19:55.262Z,49.49
2019-03-10T03:22:21.270Z,49.51
2019-03-10T03:24:47.293Z,49.61
2019-03-10T03:27:13.431Z,49.63
2019-03-10T03:29:39.567Z,49.38
2019-03-10T03:32:05.649Z,49.47
2019-03-10T03:34:31.887Z,49.41
2019-03-10T03:36:57.913Z,49.25
2019-03-10T03:39:24.024Z,49.24
2019-03-10T03:41:50.118Z,49.21
2019-03-10T03:44:16.169Z,49.34
2019-03-10T03:46:42.228Z,49.43
2019-03-10T03:49:08.239Z,49.49
2019-03-10T03:51:34.268Z,49.53
2019-03-10T03:54:00.267Z,49.59
2019-03-10T03:56:26.341Z,49.54
2019-03-10T03:58:52.482Z,49.57
2019-03-10T04:01:18.613Z,49.55
2019-03-10T04:03:44.672Z,49.56
2019-03-10T04:06:10.721Z,49.56
2019-03-10T04:08:36.765Z,49.55
2019-03-10T04:11:02.783Z,49.59
2019-03-10T04:13:28.839Z,49.62
2019-03-10T04:15:54.866Z,49.59
2019-03-10T04:18:20.946Z,49.57
2019-03-10T04:20:47.021Z,49.71
2019-03-10T04:23:13.107Z,49.71
2019-03-10T04:25:39.173Z,49.77
2019-03-10T04:28:05.244Z,49.70
2019-03-10T04:30:31.302Z,49.79
2019-03-10T04:32:57.367Z,49.79
2019-03-10T04:35:23.452Z,49.83
2019-03-10T04:37:49.500Z,49.87
2019-03-10T04:40:15.536Z,49.88
2019-03-10T04:42:41.547Z,49.93
2019-03-10T04:45:07.597Z,49.93
2019-03-10T04:47:33.631Z,49.93
2019-03-10T04:49:59.656Z,50.06
2019-03-10T04:52:25.704Z,50.81
2019-03-10T04:54:51.757Z,50.54
2019-03-10T04:57:17.784Z,50.31
2019-03-10T04:59:43.831Z,50.15
2019-03-10T05:02:09.848Z,50.18
2019-03-10T05:04:35.873Z,50.29
2019-03-10T05:07:01.913Z,50.26
2019-03-10T05:09:27.958Z,50.25
2019-03-10T05:11:54.017Z,50.29
2019-03-10T05:14:20.129Z,50.27
2019-03-10T05:16:46.186Z,50.38
2019-03-10T05:19:12.238Z,50.36
2019-03-10T05:21:41.474Z,50.33
2019-03-10T05:24:07.497Z,50.46
2019-03-10T05:26:33.540Z,50.50
2019-03-10T05:28:59.576Z,50.44
2019-03-10T05:31:25.632Z,50.44
2019-03-10T05:33:51.688Z,50.54
2019-03-10T05:36:17.724Z,50.56
2019-03-10T05:38:43.766Z,50.52
2019-03-10T05:41:09.809Z,50.48
2019-03-10T05:43:35.862Z,50.54
2019-03-10T05:46:01.961Z,50.57
2019-03-10T05:48:27.996Z,50.52
2019-03-10T05:50:54.071Z,50.56
2019-03-10T05:53:20.195Z,50.58
2019-03-10T05:55:46.247Z,50.56
2019-03-10T05:58:12.286Z,50.69
2019-03-10T06:00:42.496Z,50.69
2019-03-10T06:03:06.193Z,50.70
2019-03-10T06:05:32.188Z,50.78
2019-03-10T06:07:58.247Z,50.85
2019-03-10T06:10:24.264Z,50.81
2019-03-10T06:12:50.316Z,50.88
2019-03-10T06:15:16.376Z,50.89
2019-03-10T06:17:42.480Z,50.88
2019-03-10T06:20:08.489Z,50.87
2019-03-10T06:22:34.533Z,50.87
2019-03-10T06:25:00.585Z,50.83
2019-03-10T06:27:26.599Z,50.91
2019-03-10T06:29:52.713Z,50.86
2019-03-10T06:32:18.757Z,50.80
2019-03-10T06:34:44.826Z,50.73
2019-03-10T06:37:10.914Z,50.81
2019-03-10T06:39:36.975Z,50.92
2019-03-10T06:42:03.010Z,50.97
2019-03-10T06:44:29.075Z,50.96
2019-03-10T06:46:55.149Z,51.04
2019-03-10T06:49:21.160Z,51.04
2019-03-10T06:51:47.214Z,51.13
2019-03-10T06:54:13.249Z,51.05
2019-03-10T06:56:39.295Z,50.99
2019-03-10T06:59:05.319Z,51.01
2019-03-10T07:01:31.387Z,51.05
2019-03-10T07:03:57.452Z,50.99
2019-03-10T07:06:23.474Z,51.05
2019-03-10T07:08:49.544Z,51.07
2019-03-10T07:11:15.569Z,51.11
2019-03-10T07:13:41.672Z,51.03
2019-03-10T07:16:07.719Z,51.05
2019-03-10T07:18:33.782Z,51.07
2019-03-10T07:20:59.893Z,51.07
2019-03-10T07:23:25.983Z,51.08
2019-03-10T07:25:52.026Z,51.08
2019-03-10T07:28:18.057Z,51.13
2019-03-10T07:30:44.110Z,51.20
2019-03-10T07:33:10.161Z,51.24
2019-03-10T07:35:36.205Z,51.27
2019-03-10T07:38:02.294Z,50.73
2019-03-10T07:40:28.450Z,51.06
2019-03-10T07:42:54.502Z,51.44
2019-03-10T07:45:20.570Z,51.28
2019-03-10T07:47:46.764Z,51.22
2019-03-10T07:50:12.843Z,51.27
2019-03-10T07:52:38.908Z,51.30
2019-03-10T07:55:04.977Z,51.01
2019-03-10T07:57:31.044Z,51.29
2019-03-10T07:59:57.119Z,51.09
2019-03-10T08:02:23.225Z,51.37
2019-03-10T08:04:49.263Z,51.61
2019-03-10T08:07:15.325Z,51.45
2019-03-10T08:09:41.449Z,51.40
2019-03-10T08:12:07.567Z,51.47
2019-03-10T08:14:33.754Z,51.56
2019-03-10T08:16:59.836Z,51.56
2019-03-10T08:19:25.875Z,51.59
2019-03-10T08:21:51.987Z,51.70
2019-03-10T08:24:18.056Z,51.64
2019-03-10T08:26:44.147Z,51.62
2019-03-10T08:29:10.211Z,51.60
2019-03-10T08:31:36.308Z,51.71
2019-03-10T08:34:02.608Z,51.52
2019-03-10T08:36:28.772Z,51.83
2019-03-10T08:38:55.020Z,51.84
2019-03-10T08:41:21.172Z,51.85
2019-03-10T08:43:47.344Z,51.89
2019-03-10T08:46:13.565Z,51.80
2019-03-10T08:48:39.657Z,51.84
2019-03-10T08:51:05.825Z,51.89
2019-03-10T08:53:31.961Z,51.98
2019-03-10T08:55:58.179Z,52.00
2019-03-10T08:58:24.376Z,52.03
2019-03-10T09:00:50.528Z,52.06
2019-03-10T09:03:16.670Z,52.18
2019-03-10T09:05:42.856Z,52.21
2019-03-10T09:08:09.057Z,52.31
2019-03-10T09:10:35.211Z,52.42
2019-03-10T09:13:01.438Z,52.41
2019-03-10T09:15:27.494Z,52.51
2019-03-10T09:17:53.572Z,52.58
2019-03-10T09:20:19.684Z,52.45
2019-03-10T09:22:45.931Z,52.56
2019-03-10T09:25:12.084Z,52.47
2019-03-10T09:27:38.216Z,51.47
2019-03-10T09:30:04.266Z,52.17
2019-03-10T09:32:30.306Z,51.98
2019-03-10T09:34:56.346Z,51.99
2019-03-10T09:37:22.530Z,52.26
2019-03-10T09:39:48.593Z,52.37
2019-03-10T09:42:14.710Z,52.53
2019-03-10T09:44:40.770Z,52.50
2019-03-10T09:47:06.827Z,52.49
2019-03-10T09:49:32.932Z,52.48
2019-03-10T09:51:59.051Z,52.22
2019-03-10T09:54:25.325Z,52.02
2019-03-10T09:56:51.436Z,52.46
2019-03-10T09:59:17.533Z,52.33
2019-03-10T10:01:43.624Z,52.33
2019-03-10T10:04:09.669Z,52.44
2019-03-10T10:06:35.747Z,52.34
2019-03-10T10:09:01.856Z,52.17
2019-03-10T10:11:27.880Z,52.26
2019-03-10T10:13:53.954Z,52.39
2019-03-10T10:16:20.114Z,52.45
2019-03-10T10:18:46.278Z,52.37
2019-03-10T10:21:12.414Z,52.50
2019-03-10T10:23:38.491Z,52.28
2019-03-10T10:26:04.532Z,52.55
2019-03-10T10:28:30.595Z,52.62
2019-03-10T10:30:56.661Z,52.06
2019-03-10T10:33:22.722Z,52.02
2019-03-10T10:35:48.833Z,51.82
2019-03-10T10:38:18.434Z,51.84
2019-03-10T10:40:42.755Z,52.25
2019-03-10T10:43:08.948Z,52.00
2019-03-10T10:45:34.986Z,51.74
2019-03-10T10:48:01.057Z,52.01
2019-03-10T10:50:27.177Z,52.17
2019-03-10T10:52:53.290Z,52.00
2019-03-10T10:55:19.455Z,52.09
2019-03-10T10:57:45.584Z,52.18
2019-03-10T11:00:11.761Z,52.14
2019-03-10T11:02:37.902Z,52.11
2019-03-10T11:05:03.971Z,52.14
2019-03-10T11:07:30.419Z,52.17
2019-03-10T11:09:56.503Z,52.20
2019-03-10T11:12:22.558Z,52.44
2019-03-10T11:14:48.625Z,52.26
2019-03-10T11:17:14.768Z,52.66
2019-03-10T11:19:40.868Z,52.71
2019-03-10T11:22:06.953Z,52.72
2019-03-10T11:24:32.994Z,52.54
2019-03-10T11:26:59.176Z,52.48
2019-03-10T11:29:25.268Z,52.63
2019-03-10T11:31:51.415Z,52.75
2019-03-10T11:34:17.506Z,52.59
2019-03-10T11:36:43.546Z,52.67
2019-03-10T11:39:09.581Z,52.80
2019-03-10T11:41:36.722Z,52.69
2019-03-10T11:44:02.791Z,52.23
2019-03-10T11:46:28.896Z,51.98
2019-03-10T11:48:54.937Z,51.79
2019-03-10T11:51:20.958Z,51.71
2019-03-10T11:53:47.066Z,51.64
2019-03-10T11:56:13.121Z,51.62
2019-03-10T11:58:47.501Z,51.50
2019-03-10T12:01:13.953Z,51.63
2019-03-10T12:03:40.116Z,52.22
2019-03-10T12:11:11.342Z,52.20
2019-03-10T12:13:44.887Z,51.93
2019-03-10T12:16:11.609Z,51.81
2019-03-10T12:21:15.299Z,51.88
2019-03-10T12:23:42.084Z,51.81
2019-03-10T12:26:09.750Z,51.74
2019-03-10T12:28:36.100Z,51.72
2019-03-10T12:31:04.129Z,51.67
2019-03-10T12:33:31.517Z,51.60
2019-03-10T12:35:57.909Z,51.55
2019-03-10T12:38:27.244Z,51.40
2019-03-10T12:43:24.832Z,51.85
2019-03-10T12:45:51.000Z,51.65
2019-03-10T12:48:17.163Z,51.65
2019-03-10T12:50:44.073Z,51.61
2019-03-10T12:53:10.177Z,51.56
2019-03-10T12:55:36.403Z,51.48
2019-03-10T12:58:02.538Z,51.45
2019-03-10T13:00:28.620Z,51.29
2019-03-10T13:02:54.620Z,51.16
2019-03-10T13:05:20.666Z,50.95
2019-03-10T13:07:47.681Z,51.08
2019-03-10T13:10:13.752Z,50.95
2019-03-10T13:12:39.760Z,50.90
2019-03-10T13:15:06.665Z,50.83
2019-03-10T13:17:32.718Z,50.85
2019-03-10T13:19:58.757Z,51.11
2019-03-10T13:22:24.754Z,51.24
2019-03-10T13:24:50.747Z,50.93
2019-03-10T13:27:16.753Z,50.83
2019-03-10T13:29:42.817Z,51.13
2019-03-10T13:32:08.850Z,51.01
2019-03-10T13:34:34.930Z,50.76
2019-03-10T13:37:01.049Z,50.97
2019-03-10T13:39:27.033Z,50.61
2019-03-10T13:41:53.055Z,50.11
2019-03-10T13:44:19.151Z,50.18
2019-03-10T13:46:45.194Z,50.06
2019-03-10T13:49:11.257Z,50.02
2019-03-10T13:51:37.414Z,49.79
2019-03-10T13:54:03.423Z,49.84
2019-03-10T13:56:30.222Z,49.56
2019-03-10T13:58:56.603Z,49.63
2019-03-10T14:01:22.864Z,49.41
2019-03-10T14:03:49.094Z,49.36
2019-03-10T14:06:15.201Z,49.04
2019-03-10T14:08:41.234Z,49.01
2019-03-10T14:11:09.324Z,49.14
2019-03-10T14:13:35.486Z,49.00
2019-03-10T14:16:01.501Z,48.73
2019-03-10T14:18:27.500Z,48.62
2019-03-10T14:20:53.517Z,48.52
2019-03-10T14:23:19.538Z,48.17
2019-03-10T14:25:45.579Z,48.43
2019-03-10T14:28:11.771Z,48.09
2019-03-10T14:30:39.578Z,47.54
2019-03-10T14:33:05.647Z,47.68
2019-03-10T14:35:31.708Z,47.80
2019-03-10T14:37:57.702Z,47.48
2019-03-10T14:40:23.714Z,47.40
2019-03-10T14:42:49.710Z,47.36
2019-03-10T14:45:15.732Z,47.18
2019-03-10T14:47:41.721Z,47.12
2019-03-10T14:50:07.724Z,47.01
2019-03-10T14:52:33.736Z,47.14
2019-03-10T14:54:59.775Z,47.08
2019-03-10T14:57:25.832Z,47.02
2019-03-10T14:59:51.835Z,47.17
2019-03-10T15:02:17.860Z,46.96
2019-03-10T15:04:43.862Z,47.06
2019-03-10T15:07:09.867Z,46.99
2019-03-10T15:09:36.795Z,46.94
2019-03-10T15:12:02.902Z,46.94
2019-03-10T15:14:28.909Z,46.94
2019-03-10T15:17:01.638Z,46.72
2019-03-10T15:19:22.645Z,46.84
2019-03-10T15:21:48.670Z,47.79
2019-03-10T15:24:14.668Z,47.73
2019-03-10T15:26:45.689Z,47.76
2019-03-10T15:29:08.420Z,47.85
2019-03-10T15:31:34.516Z,47.91
2019-03-10T15:34:00.618Z,47.93
2019-03-10T15:36:26.662Z,47.93
2019-03-10T15:38:52.668Z,47.88
2019-03-10T15:41:18.720Z,47.89
2019-03-10T15:43:44.724Z,48.41
2019-03-10T15:46:10.748Z,48.68
2019-03-10T15:48:36.731Z,48.33
2019-03-10T15:51:02.745Z,48.23
2019-03-10T15:53:28.850Z,48.15
2019-03-10T15:55:54.905Z,47.90
2019-03-10T15:58:20.909Z,47.61
2019-03-10T16:00:46.888Z,47.24
2019-03-10T16:03:12.872Z,47.04
2019-03-10T16:05:38.880Z,47.25
2019-03-10T16:08:04.911Z,47.13
2019-03-10T16:10:30.905Z,46.98
2019-03-10T16:12:56.909Z,46.84
2019-03-10T16:15:22.896Z,46.89
2019-03-10T16:17:48.929Z,46.97
2019-03-10T16:20:14.974Z,46.84
2019-03-10T16:22:40.982Z,46.73
2019-03-10T16:25:06.973Z,46.96
2019-03-10T16:27:33.015Z,47.21
2019-03-10T16:29:59.020Z,48.10
2019-03-10T16:32:25.062Z,47.55
2019-03-10T16:34:51.094Z,48.10
2019-03-10T16:37:17.169Z,48.34
2019-03-10T16:39:43.174Z,47.78
2019-03-10T16:42:09.159Z,48.55
2019-03-10T16:44:35.166Z,48.47
2019-03-10T16:47:01.161Z,47.69
2019-03-10T16:49:27.193Z,47.54
2019-03-10T16:51:53.257Z,47.54
2019-03-10T16:54:19.236Z,47.26
2019-03-10T16:56:45.270Z,47.38
2019-03-10T16:59:11.345Z,47.53
2019-03-10T17:01:37.346Z,47.59
2019-03-10T17:04:03.348Z,47.78
2019-03-10T17:06:29.334Z,47.29
2019-03-10T17:08:55.350Z,47.17
2019-03-10T17:11:21.434Z,47.46
2019-03-10T17:13:47.445Z,47.29
2019-03-10T17:16:13.457Z,47.33
2019-03-10T17:18:39.449Z,47.21
2019-03-10T17:21:05.425Z,46.94
2019-03-10T17:23:31.428Z,46.86
2019-03-10T17:25:57.426Z,46.99
2019-03-10T17:28:23.411Z,48.10
2019-03-10T17:30:49.471Z,47.18
2019-03-10T17:33:15.461Z,46.65
2019-03-10T17:35:41.468Z,46.95
2019-03-10T17:38:07.518Z,47.58
2019-03-10T17:40:33.491Z,46.67
2019-03-10T17:42:59.495Z,46.90
2019-03-10T17:45:25.505Z,46.42
2019-03-10T17:47:51.516Z,46.78
2019-03-10T17:50:17.544Z,46.98
2019-03-10T17:52:43.618Z,46.89
2019-03-10T17:55:09.634Z,46.70
2019-03-10T17:57:35.709Z,47.17
2019-03-10T18:00:01.709Z,47.47
2019-03-10T18:02:27.760Z,46.75
2019-03-10T18:04:53.747Z,46.83
2019-03-10T18:07:19.847Z,46.76
2019-03-10T18:09:45.886Z,46.47
2019-03-10T18:12:11.904Z,46.71
2019-03-10T18:14:37.891Z,46.70
2019-03-10T18:17:03.915Z,46.30
2019-03-10T18:19:29.899Z,46.26
2019-03-10T18:21:55.903Z,46.02
2019-03-10T18:24:21.908Z,45.98
2019-03-10T18:26:47.980Z,46.62
2019-03-10T18:29:13.990Z,46.39
2019-03-10T18:31:40.030Z,46.36
2019-03-10T18:34:06.071Z,46.41
2019-03-10T18:36:32.079Z,46.30
2019-03-10T18:38:58.101Z,46.04
2019-03-10T18:41:24.147Z,46.21
2019-03-10T18:43:50.157Z,45.95
2019-03-10T18:46:16.144Z,46.32
2019-03-10T18:48:42.221Z,45.92
2019-03-10T18:51:08.216Z,45.86
2019-03-10T18:53:34.283Z,45.75
2019-03-10T18:56:00.274Z,45.82
2019-03-10T18:58:26.259Z,46.39
2019-03-10T19:00:52.268Z,46.36
2019-03-10T19:03:18.268Z,46.21
2019-03-10T19:05:44.275Z,46.36
2019-03-10T19:08:10.280Z,46.42
2019-03-10T19:10:36.290Z,46.25
2019-03-10T19:13:02.391Z,46.34
2019-03-10T19:15:28.391Z,46.44
2019-03-10T19:17:54.433Z,46.30
2019-03-10T19:20:20.465Z,46.76
2019-03-10T19:22:46.454Z,46.59
2019-03-10T19:25:14.674Z,46.22
2019-03-10T19:27:40.756Z,46.21
2019-03-10T19:30:06.813Z,46.23
2019-03-10T19:32:32.835Z,46.13
2019-03-10T19:34:58.842Z,46.29
2019-03-10T19:37:24.834Z,46.29
2019-03-10T19:39:50.833Z,46.39
2019-03-10T19:42:16.827Z,46.79
2019-03-10T19:44:42.859Z,46.60
2019-03-10T19:47:08.930Z,46.39
2019-03-10T19:49:34.918Z,46.19
2019-03-10T19:52:00.944Z,46.24
2019-03-10T19:54:26.963Z,46.14
2019-03-10T19:56:53.031Z,46.37
2019-03-10T19:59:19.038Z,46.46
2019-03-10T20:01:45.058Z,46.43
2019-03-10T20:04:11.080Z,46.67
2019-03-10T20:06:37.071Z,46.64
2019-03-10T20:09:03.203Z,46.56
2019-03-10T20:11:29.248Z,46.83
2019-03-10T20:13:55.255Z,46.82
2019-03-10T20:16:21.258Z,47.14
2019-03-10T20:18:47.294Z,47.10
2019-03-10T20:21:13.301Z,47.13
2019-03-10T20:23:39.309Z,47.17
2019-03-10T20:26:05.304Z,47.15
2019-03-10T20:28:31.319Z,46.98
2019-03-10T20:30:57.324Z,46.88
2019-03-10T20:33:23.354Z,46.55
2019-03-10T20:35:49.357Z,45.83
2019-03-10T20:38:15.383Z,46.05
2019-03-10T20:40:41.393Z,45.88
2019-03-10T20:43:07.393Z,46.13
2019-03-10T20:45:33.419Z,46.06
2019-03-10T20:47:59.475Z,45.83
2019-03-10T20:50:25.503Z,46.28
2019-03-10T20:52:51.512Z,46.40
2019-03-10T20:55:17.682Z,46.07
2019-03-10T20:57:43.679Z,45.95
2019-03-10T21:00:09.696Z,46.21
2019-03-10T21:02:35.684Z,46.36
2019-03-10T21:05:01.696Z,46.15
2019-03-10T21:07:27.737Z,46.23
2019-03-10T21:09:53.763Z,46.47
2019-03-10T21:12:19.834Z,47.15
2019-03-10T21:14:45.826Z,47.22
2019-03-10T21:17:11.842Z,47.83
2019-03-10T21:19:37.845Z,47.74
2019-03-10T21:22:03.907Z,47.79
2019-03-10T21:24:29.937Z,47.92
2019-03-10T21:26:55.983Z,48.04
2019-03-10T21:29:21.995Z,47.90
2019-03-10T21:31:48.035Z,47.85
2019-03-10T21:34:14.019Z,47.65
2019-03-10T21:36:40.017Z,47.67
